Meknes, Morocco
Current Conditions -  °F | °C
As of 4:00 AM on Monday 20 Oct 2014 (Local Time) from GMFM Reporting Station
Clear Clear  
Wind Chill: 25°   Ceiling: Unl
Heat Index: 25°   Visibility: 6mi
Dew Point: -1°   Wind: 7mph
Humidity: 18%   Direction: 130°SE
Pressure: 30"   Gusts: NA
Location:  33.9°N, 5.56°W
Report Text: GMFM 200300Z 13006KT CAVOK 25/M01 Q1016 NOSIG
Loading
Personal Weather Stations






























Interactive Weather Map
Tropical Storm Tracking
New forecast layout! Learn more

10-Day Weather Forecast

Advertisements
Track Severe Weather on mobile